VLG3YE GCXO-LEBL
Flight info
| Callsign | VLG3YE |
|---|---|
| Flight time | N/A |
| Altitude | 36000 |
| Route | VASTO UN858 SUNID/N0443F380 UN858 AKUDA DCT OBOLO DCT PESAS DCT OSLEP DCT OXACA DCT HIJ DCT CRISA DCT INPAN DCT VTB DCT CJN DCT BRITO/N0449F320 DCT PISUS/N0450F300 DCT PONEN T600 CASPE |
| Aircraft | A320/M-SDE3FGHIRWY/LB1 |
Departure
| Time | 2026-05-01 15:08 |
|---|---|
| Airport | Tenerife Norte-Ciudad de La Laguna Airport (GCXO) |
Arrival
| Time | N/A |
|---|---|
| Airport | Josep Tarradellas Barcelona-El Prat Airport (LEBL) |
| Time | Latitude | Longitude | Altitude | Speed | Heading |
|---|---|---|---|---|---|
| 2026-05-01 14:27 | 28.48720 | -16.34772 | 2102 ft | 0 kts | 40° |
| 2026-05-01 14:58 | 28.48714 | -16.34778 | 2102 ft | 2 kts | 40° |
| 2026-05-01 14:58 | 28.48701 | -16.34790 | 2103 ft | 2 kts | 40° |
| 2026-05-01 14:58 | 28.48689 | -16.34802 | 2102 ft | 2 kts | 41° |
| 2026-05-01 14:59 | 28.48676 | -16.34814 | 2103 ft | 2 kts | 41° |
| 2026-05-01 14:59 | 28.48664 | -16.34827 | 2105 ft | 2 kts | 43° |
| 2026-05-01 14:59 | 28.48652 | -16.34840 | 2103 ft | 2 kts | 40° |
| 2026-05-01 14:59 | 28.48640 | -16.34852 | 2105 ft | 2 kts | 46° |
| 2026-05-01 15:00 | 28.48625 | -16.34883 | 2104 ft | 1 kts | 99° |
| 2026-05-01 15:00 | 28.48625 | -16.34887 | 2105 ft | 0 kts | 109° |
| 2026-05-01 15:02 | 28.48615 | -16.34855 | 2104 ft | 10 kts | 110° |
| 2026-05-01 15:02 | 28.48606 | -16.34827 | 2102 ft | 12 kts | 112° |
| 2026-05-01 15:02 | 28.48553 | -16.34673 | 2100 ft | 12 kts | 111° |
| 2026-05-01 15:02 | 28.48528 | -16.34596 | 2101 ft | 9 kts | 110° |
| 2026-05-01 15:03 | 28.48509 | -16.34536 | 2101 ft | 7 kts | 109° |
| 2026-05-01 15:03 | 28.48491 | -16.34479 | 2100 ft | 11 kts | 111° |
| 2026-05-01 15:03 | 28.48458 | -16.34381 | 2099 ft | 14 kts | 111° |
| 2026-05-01 15:03 | 28.48426 | -16.34289 | 2100 ft | 11 kts | 111° |
| 2026-05-01 15:04 | 28.48389 | -16.34174 | 2103 ft | 20 kts | 110° |
| 2026-05-01 15:04 | 28.48338 | -16.34018 | 2100 ft | 22 kts | 110° |
| 2026-05-01 15:04 | 28.48287 | -16.33864 | 2103 ft | 21 kts | 110° |
| 2026-05-01 15:04 | 28.48236 | -16.33705 | 2099 ft | 23 kts | 111° |
| 2026-05-01 15:05 | 28.48176 | -16.33532 | 2099 ft | 24 kts | 110° |
| 2026-05-01 15:05 | 28.48114 | -16.33345 | 2095 ft | 27 kts | 111° |
| 2026-05-01 15:05 | 28.48056 | -16.33171 | 2096 ft | 19 kts | 110° |
| 2026-05-01 15:05 | 28.48011 | -16.33033 | 2098 ft | 19 kts | 111° |
| 2026-05-01 15:06 | 28.47965 | -16.32895 | 2100 ft | 18 kts | 111° |
| 2026-05-01 15:06 | 28.47922 | -16.32764 | 2104 ft | 17 kts | 110° |
| 2026-05-01 15:06 | 28.47906 | -16.32718 | 2105 ft | 1 kts | 111° |
| 2026-05-01 15:06 | 28.47898 | -16.32693 | 2104 ft | 8 kts | 110° |
| 2026-05-01 15:07 | 28.47885 | -16.32612 | 2103 ft | 14 kts | 95° |
| 2026-05-01 15:07 | 28.47828 | -16.32534 | 2119 ft | 12 kts | 143° |
| 2026-05-01 15:07 | 28.47761 | -16.32527 | 2106 ft | 8 kts | 188° |
| 2026-05-01 15:07 | 28.47742 | -16.32568 | 2106 ft | 9 kts | 279° |
| 2026-05-01 15:08 | 28.47830 | -16.32835 | 2103 ft | 73 kts | 290° |
| 2026-05-01 15:08 | 28.48087 | -16.33610 | 2100 ft | 134 kts | 290° |
| 2026-05-01 15:08 | 28.48479 | -16.34793 | 2142 ft | 178 kts | 292° |
| 2026-05-01 15:08 | 28.48923 | -16.36090 | 2756 ft | 180 kts | 293° |
| 2026-05-01 15:09 | 28.49389 | -16.37454 | 3310 ft | 190 kts | 294° |
| 2026-05-01 15:09 | 28.49930 | -16.38924 | 3572 ft | 214 kts | 295° |
| 2026-05-01 15:09 | 28.50559 | -16.40595 | 3746 ft | 246 kts | 294° |
| 2026-05-01 15:09 | 28.51241 | -16.42498 | 4151 ft | 268 kts | 292° |
| 2026-05-01 15:10 | 28.51923 | -16.44494 | 5021 ft | 272 kts | 291° |
| 2026-05-01 15:10 | 28.53279 | -16.48513 | 6857 ft | 274 kts | 289° |
| 2026-05-01 15:10 | 28.53964 | -16.50542 | 7686 ft | 276 kts | 289° |
| 2026-05-01 15:11 | 28.54875 | -16.52482 | 8517 ft | 281 kts | 306° |
| 2026-05-01 15:11 | 28.58164 | -16.54936 | 10165 ft | 295 kts | 344° |
| 2026-05-01 15:11 | 28.60206 | -16.55110 | 10863 ft | 303 kts | 4° |
| 2026-05-01 15:12 | 28.62273 | -16.54468 | 11386 ft | 319 kts | 24° |
| 2026-05-01 15:12 | 28.65422 | -16.50529 | 11749 ft | 367 kts | 72° |
| 2026-05-01 15:12 | 28.65925 | -16.47632 | 12197 ft | 377 kts | 82° |
| 2026-05-01 15:13 | 28.67119 | -16.38625 | 13181 ft | 386 kts | 82° |
| 2026-05-01 15:14 | 28.67934 | -16.32525 | 14130 ft | 391 kts | 82° |
| 2026-05-01 15:14 | 28.68350 | -16.29439 | 14716 ft | 394 kts | 82° |
| 2026-05-01 15:14 | 28.69190 | -16.23209 | 15841 ft | 402 kts | 82° |
| 2026-05-01 15:15 | 28.70041 | -16.16896 | 16912 ft | 409 kts | 82° |
| 2026-05-01 15:15 | 28.70907 | -16.10423 | 17993 ft | 416 kts | 81° |
| 2026-05-01 15:16 | 28.71780 | -16.03842 | 18986 ft | 423 kts | 82° |
| 2026-05-01 15:16 | 28.72661 | -15.97153 | 19970 ft | 429 kts | 82° |
| 2026-05-01 15:17 | 28.73550 | -15.90406 | 20940 ft | 435 kts | 82° |
| 2026-05-01 15:18 | 28.74905 | -15.80053 | 22332 ft | 444 kts | 82° |
| 2026-05-01 15:18 | 28.75361 | -15.76553 | 22775 ft | 448 kts | 82° |
| 2026-05-01 15:19 | 28.76746 | -15.65921 | 23994 ft | 456 kts | 82° |
| 2026-05-01 15:19 | 28.77679 | -15.58712 | 24665 ft | 461 kts | 82° |
| 2026-05-01 15:19 | 28.78149 | -15.55079 | 25002 ft | 464 kts | 82° |
| 2026-05-01 15:20 | 28.79086 | -15.47814 | 25666 ft | 468 kts | 82° |
| 2026-05-01 15:20 | 28.79558 | -15.44134 | 25991 ft | 470 kts | 82° |
| 2026-05-01 15:20 | 28.80032 | -15.40423 | 26312 ft | 472 kts | 82° |
| 2026-05-01 15:21 | 28.80508 | -15.36712 | 26628 ft | 474 kts | 82° |
| 2026-05-01 15:21 | 28.80985 | -15.32975 | 26935 ft | 476 kts | 82° |
| 2026-05-01 15:21 | 28.81459 | -15.29232 | 27231 ft | 478 kts | 82° |
| 2026-05-01 15:21 | 28.81931 | -15.25470 | 27525 ft | 480 kts | 82° |
| 2026-05-01 15:22 | 28.82883 | -15.17892 | 28096 ft | 484 kts | 82° |
| 2026-05-01 15:22 | 28.83356 | -15.14135 | 28367 ft | 485 kts | 82° |
| 2026-05-01 15:22 | 28.83838 | -15.10303 | 28631 ft | 487 kts | 82° |
| 2026-05-01 15:23 | 28.84319 | -15.06472 | 28884 ft | 489 kts | 82° |
| 2026-05-01 15:23 | 28.84802 | -15.02615 | 29125 ft | 491 kts | 82° |
| 2026-05-01 15:23 | 28.85286 | -14.98753 | 29359 ft | 492 kts | 82° |
| 2026-05-01 15:23 | 28.85771 | -14.94870 | 29592 ft | 494 kts | 82° |
| 2026-05-01 15:24 | 28.86395 | -14.91056 | 29937 ft | 492 kts | 75° |
| 2026-05-01 15:24 | 28.87548 | -14.87376 | 30289 ft | 491 kts | 65° |
| 2026-05-01 15:24 | 28.89222 | -14.83990 | 30572 ft | 490 kts | 54° |
| 2026-05-01 15:24 | 28.91364 | -14.80971 | 30828 ft | 488 kts | 44° |
| 2026-05-01 15:25 | 28.93899 | -14.78407 | 31078 ft | 486 kts | 34° |
| 2026-05-01 15:25 | 28.96664 | -14.76273 | 31330 ft | 485 kts | 31° |
| 2026-05-01 15:25 | 28.99481 | -14.74145 | 31591 ft | 485 kts | 31° |
| 2026-05-01 15:25 | 29.02298 | -14.72008 | 31854 ft | 485 kts | 31° |
| 2026-05-01 15:26 | 29.05121 | -14.69862 | 32104 ft | 485 kts | 31° |
| 2026-05-01 15:26 | 29.07941 | -14.67718 | 32373 ft | 485 kts | 31° |
| 2026-05-01 15:26 | 29.10754 | -14.65580 | 32639 ft | 485 kts | 31° |
| 2026-05-01 15:26 | 29.13530 | -14.63471 | 32902 ft | 485 kts | 31° |
| 2026-05-01 15:27 | 29.16345 | -14.61330 | 33166 ft | 484 kts | 31° |
| 2026-05-01 15:27 | 29.19163 | -14.59189 | 33431 ft | 484 kts | 31° |
| 2026-05-01 15:27 | 29.21971 | -14.57057 | 33700 ft | 484 kts | 31° |
| 2026-05-01 15:28 | 29.27552 | -14.52808 | 34233 ft | 483 kts | 31° |
| 2026-05-01 15:28 | 29.30351 | -14.50673 | 34471 ft | 482 kts | 31° |
| 2026-05-01 15:28 | 29.33147 | -14.48538 | 34729 ft | 482 kts | 31° |
| 2026-05-01 15:29 | 29.38732 | -14.44262 | 35187 ft | 481 kts | 31° |
| 2026-05-01 15:29 | 29.41483 | -14.42158 | 35413 ft | 480 kts | 30° |
| 2026-05-01 15:29 | 29.47039 | -14.37913 | 35849 ft | 478 kts | 30° |
| 2026-05-01 15:30 | 29.52572 | -14.33663 | 36156 ft | 479 kts | 30° |
| 2026-05-01 15:31 | 29.69198 | -14.20886 | 36170 ft | 480 kts | 30° |
| 2026-05-01 15:32 | 29.80275 | -14.12342 | 36174 ft | 480 kts | 30° |
| 2026-05-01 15:34 | 29.96917 | -13.99467 | 36177 ft | 480 kts | 30° |